Time;durP1;ratioP1;P1;durP2;ratioP2;P2;SDS_P1;SDS_P2;PMS_P1;PMS_P2;Temp;Humidity;BMP_temperature;BMP_pressure;BME280_temperature;BME280_humidity;BME280_pressure;Samples;Min_cycle;Max_cycle;Signal;HPM_P1;HPM_P2
2020/12/23 00:02:19;;;;;;;49.27;22.93;;;;;;;-147.27;100.00;65176.34;5021662;28;20087;-59
2020/12/23 00:04:44;;;;;;;55.90;26.27;;;;;;;-147.27;100.00;65176.34;5019482;28;20049;-60
2020/12/23 00:07:14;;;;;;;53.30;26.07;;;;;;;-147.27;100.00;65176.34;5020407;28;20105;-60
2020/12/23 00:09:44;;;;;;;53.33;25.37;;;;;;;-147.27;100.00;65176.34;5022543;28;20113;-61
2020/12/23 00:12:10;;;;;;;52.33;25.40;;;;;;;-147.27;100.00;65176.34;5030398;28;20369;-61
2020/12/23 00:14:36;;;;;;;55.47;25.48;;;;;;;-147.27;100.00;65176.34;5034246;28;20747;-61
2020/12/23 00:17:01;;;;;;;55.22;25.23;;;;;;;-147.27;100.00;65176.34;5033089;28;20038;-60
2020/12/23 00:19:27;;;;;;;61.05;27.77;;;;;;;-147.27;100.00;65176.34;5031521;28;20041;-59
2020/12/23 00:21:53;;;;;;;54.00;27.10;;;;;;;-147.27;100.00;65176.34;5032123;28;20029;-60
2020/12/23 00:24:19;;;;;;;60.78;26.45;;;;;;;-147.27;100.00;65176.34;5031271;28;20076;-61
2020/12/23 00:26:44;;;;;;;59.85;27.33;;;;;;;-147.27;100.00;65176.34;5032269;28;20076;-61
2020/12/23 00:29:10;;;;;;;49.60;24.83;;;;;;;-147.27;100.00;65176.34;5031273;28;20087;-59
2020/12/23 00:31:35;;;;;;;62.57;27.33;;;;;;;-147.27;100.00;65176.34;5032010;28;20041;-61
2020/12/23 00:34:02;;;;;;;52.73;26.13;;;;;;;-147.27;100.00;65176.34;5031635;28;20091;-60
2020/12/23 00:36:28;;;;;;;59.67;25.73;;;;;;;-147.27;100.00;65176.34;5029916;28;20394;-60
2020/12/23 00:38:53;;;;;;;64.23;25.60;;;;;;;-147.27;100.00;65176.34;5031973;28;20334;-60
2020/12/23 00:41:18;;;;;;;52.97;27.47;;;;;;;-147.27;100.00;65176.34;5030739;28;20384;-60
2020/12/23 00:43:44;;;;;;;57.63;24.87;;;;;;;-147.27;100.00;65176.34;5031270;28;20041;-61
2020/12/23 00:46:11;;;;;;;51.10;23.50;;;;;;;-147.27;100.00;65176.34;5031412;28;20040;-55
2020/12/23 00:48:40;;;;;;;54.77;24.97;;;;;;;-147.27;100.00;65176.34;5031553;28;20033;-60
2020/12/23 00:51:13;;;;;;;60.40;26.90;;;;;;;-147.27;100.00;65176.34;5031696;28;20576;-60
2020/12/23 00:53:40;;;;;;;52.97;24.13;;;;;;;-147.27;100.00;65176.34;5030213;28;20587;-60
2020/12/23 00:56:08;;;;;;;63.10;26.13;;;;;;;-147.27;100.00;65176.34;5031176;28;20746;-59
2020/12/23 00:58:33;;;;;;;56.72;25.77;;;;;;;-147.27;100.00;65176.34;5030890;28;20727;-60
2020/12/23 01:00:59;;;;;;;61.33;25.07;;;;;;;-147.27;100.00;65176.34;5031599;28;20034;-59
2020/12/23 01:03:25;;;;;;;58.47;26.38;;;;;;;-147.27;100.00;65176.34;5030707;28;20113;-60
2020/12/23 01:05:52;;;;;;;56.85;25.08;;;;;;;-147.27;100.00;65176.34;5031510;28;20065;-60
2020/12/23 01:08:17;;;;;;;;;;;;;;;-147.27;100.00;65176.34;5031374;28;20076;-59
2020/12/23 01:10:47;;;;;;;62.50;25.30;;;;;;;-147.27;100.00;65176.34;5030123;28;20342;-60
2020/12/23 01:13:14;;;;;;;62.30;26.77;;;;;;;-147.27;100.00;65176.34;5030618;28;20034;-56
2020/12/23 01:15:39;;;;;;;;;;;;;;;-147.27;100.00;65176.34;5031774;28;20301;-60
2020/12/23 01:18:05;;;;;;;68.30;28.73;;;;;;;-147.27;100.00;65176.34;5031333;28;20356;-59
2020/12/23 01:20:30;;;;;;;68.83;27.07;;;;;;;-147.27;100.00;65176.34;5030857;28;20033;-60
2020/12/23 01:22:56;;;;;;;79.03;29.75;;;;;;;-147.27;100.00;65176.34;5031002;28;20338;-61
2020/12/23 01:25:21;;;;;;;85.03;29.92;;;;;;;-147.27;100.00;65176.34;5030444;28;20045;-60
2020/12/23 01:27:47;;;;;;;82.30;30.57;;;;;;;-147.27;100.00;65176.34;5030049;28;20034;-61
2020/12/23 01:30:14;;;;;;;78.83;31.33;;;;;;;-147.27;100.00;65176.34;5034142;28;20495;-61
2020/12/23 01:32:39;;;;;;;85.70;31.30;;;;;;;-147.27;100.00;65176.34;5033714;28;20086;-61
2020/12/23 01:35:05;;;;;;;85.30;31.00;;;;;;;-147.27;100.00;65176.34;5035267;28;20274;-60
2020/12/23 01:37:30;;;;;;;79.67;28.60;;;;;;;-147.27;100.00;65176.34;5034535;28;20461;-60
2020/12/23 01:39:56;;;;;;;86.10;28.33;;;;;;;-147.27;100.00;65176.34;5035049;28;20041;-59
2020/12/23 01:42:21;;;;;;;82.23;31.23;;;;;;;-147.27;100.00;65176.34;5033100;28;20041;-60
2020/12/23 01:44:47;;;;;;;75.47;30.63;;;;;;;-147.27;100.00;65176.34;5033459;28;20148;-61
2020/12/23 01:47:19;;;;;;;75.13;28.77;;;;;;;-147.27;100.00;65176.34;5035106;28;20504;-61
2020/12/23 01:49:45;;;;;;;85.03;30.50;;;;;;;-147.27;100.00;65176.34;5034655;28;20053;-61
2020/12/23 01:52:11;;;;;;;78.13;30.27;;;;;;;-147.27;100.00;65176.34;5034617;28;20285;-61
2020/12/23 01:54:37;;;;;;;91.60;31.27;;;;;;;-147.27;100.00;65176.34;5034128;28;20045;-61
2020/12/23 01:57:03;;;;;;;78.20;31.75;;;;;;;-147.27;100.00;65176.34;5034797;28;20046;-61
2020/12/23 01:59:28;;;;;;;91.27;31.57;;;;;;;-147.27;100.00;65176.34;5034346;28;20038;-60
2020/12/23 02:02:09;;;;;;;80.27;31.53;;;;;;;-147.27;100.00;65176.34;5034941;28;20112;-61
2020/12/23 02:04:35;;;;;;;80.40;30.70;;;;;;;-147.27;100.00;65176.34;5033738;28;20486;-61
2020/12/23 02:07:00;;;;;;;89.87;31.23;;;;;;;-147.27;100.00;65176.34;5034503;28;20370;-61
2020/12/23 02:09:28;;;;;;;73.80;29.43;;;;;;;-147.27;100.00;65176.34;5045224;28;20030;-60
2020/12/23 02:11:54;;;;;;;82.27;31.17;;;;;;;-147.27;100.00;65176.34;5017168;28;20045;-61
2020/12/23 02:14:19;;;;;;;74.90;29.55;;;;;;;-147.27;100.00;65176.34;5017864;28;20267;-60
2020/12/23 02:16:44;;;;;;;81.47;30.20;;;;;;;-147.27;100.00;65176.34;5034400;28;20120;-59
2020/12/23 02:19:12;;;;;;;86.33;30.60;;;;;;;-147.27;100.00;65176.34;5034730;28;20445;-61
2020/12/23 02:21:38;;;;;;;81.60;30.73;;;;;;;-147.27;100.00;65176.34;5033804;28;20096;-60
2020/12/23 02:24:03;;;;;;;79.93;31.27;;;;;;;-147.27;100.00;65176.34;5034294;28;20290;-60
2020/12/23 02:26:29;;;;;;;72.00;27.93;;;;;;;-147.27;100.00;65176.34;5033636;28;20045;-60
2020/12/23 02:28:54;;;;;;;71.57;29.73;;;;;;;-147.27;100.00;65176.34;5034192;28;20124;-60
2020/12/23 02:31:19;;;;;;;77.67;31.20;;;;;;;-147.27;100.00;65176.34;5033179;28;20045;-56
2020/12/23 02:33:45;;;;;;;63.80;29.57;;;;;;;-147.27;100.00;65176.34;5032541;28;20033;-59
2020/12/23 02:36:10;;;;;;;65.87;28.50;;;;;;;-147.27;100.00;65176.34;5033969;28;20132;-59
2020/12/23 02:38:36;;;;;;;75.70;31.10;;;;;;;-147.27;100.00;65176.34;5033329;28;20041;-61
2020/12/23 02:41:01;;;;;;;65.57;27.73;;;;;;;-147.27;100.00;65176.34;5027261;28;20037;-59
2020/12/23 02:43:27;;;;;;;72.03;28.40;;;;;;;-147.27;100.00;65176.34;5012096;28;20459;-61
2020/12/23 02:45:52;;;;;;;68.40;28.37;;;;;;;-147.27;100.00;65176.34;5014092;28;20263;-60
2020/12/23 02:48:18;;;;;;;66.17;28.77;;;;;;;-147.27;100.00;65176.34;5013942;28;20406;-59
2020/12/23 02:50:43;;;;;;;69.20;28.80;;;;;;;-147.27;100.00;65176.34;5013289;28;20037;-60
2020/12/23 02:53:09;;;;;;;63.43;28.47;;;;;;;-147.27;100.00;65176.34;5013741;28;20084;-60
2020/12/23 02:55:34;;;;;;;62.63;27.27;;;;;;;-147.27;100.00;65176.34;5012910;28;20049;-60
2020/12/23 02:58:00;;;;;;;62.40;27.97;;;;;;;-147.27;100.00;65176.34;5013877;28;20038;-60
2020/12/23 03:00:25;;;;;;;68.63;28.37;;;;;;;-147.27;100.00;65176.34;5013282;28;20045;-60
2020/12/23 03:02:50;;;;;;;63.37;28.77;;;;;;;-147.27;100.00;65176.34;5012433;28;20046;-59
2020/12/23 03:05:16;;;;;;;62.70;29.30;;;;;;;-147.27;100.00;65176.34;5013752;28;20057;-60
2020/12/23 03:07:41;;;;;;;64.03;28.63;;;;;;;-147.27;100.00;65176.34;5013097;28;20487;-60
2020/12/23 03:10:07;;;;;;;73.17;28.17;;;;;;;-147.27;100.00;65176.34;5013743;28;20022;-59
2020/12/23 03:12:32;;;;;;;59.20;27.27;;;;;;;-147.27;100.00;65176.34;5013314;28;20032;-59
2020/12/23 03:14:58;;;;;;;63.37;27.20;;;;;;;-147.27;100.00;65176.34;5028628;28;20062;-61
2020/12/23 03:17:23;;;;;;;72.70;31.20;;;;;;;-147.27;100.00;65176.34;5013241;28;20041;-55
2020/12/23 03:19:49;;;;;;;67.65;27.80;;;;;;;-147.27;100.00;65176.34;5012190;28;20480;-60
2020/12/23 03:22:14;;;;;;;66.10;28.90;;;;;;;-147.27;100.00;65176.34;5013819;28;20056;-61
2020/12/23 03:24:40;;;;;;;65.07;28.27;;;;;;;-147.27;100.00;65176.34;5012496;28;20048;-61
2020/12/23 03:27:05;;;;;;;64.83;28.70;;;;;;;-147.27;100.00;65176.34;5028581;28;20088;-60
2020/12/23 03:29:31;;;;;;;70.73;28.87;;;;;;;-147.27;100.00;65176.34;5012610;28;20478;-60
2020/12/23 03:31:56;;;;;;;72.43;29.70;;;;;;;-147.27;100.00;65176.34;5013230;28;20026;-60
2020/12/23 03:34:22;;;;;;;72.93;30.97;;;;;;;-147.27;100.00;65176.34;5012867;28;20049;-61
2020/12/23 03:36:47;;;;;;;66.77;29.03;;;;;;;-147.27;100.00;65176.34;5011210;28;20034;-60
2020/12/23 03:39:13;;;;;;;68.93;27.67;;;;;;;-147.27;100.00;65176.34;5013051;28;20030;-60
2020/12/23 03:41:38;;;;;;;64.47;28.03;;;;;;;-147.27;100.00;65176.34;5010885;28;20069;-60
2020/12/23 03:44:03;;;;;;;67.60;29.03;;;;;;;-147.27;100.00;65176.34;5027849;28;20050;-61
2020/12/23 03:46:29;;;;;;;64.97;27.93;;;;;;;-147.27;100.00;65176.34;5012110;28;20378;-60
2020/12/23 03:48:54;;;;;;;68.67;30.53;;;;;;;-147.27;100.00;65176.34;5012594;28;20073;-60
2020/12/23 03:51:20;;;;;;;74.13;30.13;;;;;;;-147.27;100.00;65176.34;5012508;28;20482;-61
2020/12/23 03:53:45;;;;;;;70.00;29.57;;;;;;;-147.27;100.00;65176.34;5011253;28;20052;-61
2020/12/23 03:56:11;;;;;;;76.37;29.80;;;;;;;-147.27;100.00;65176.34;5012313;28;20287;-60
2020/12/23 03:58:36;;;;;;;66.97;29.37;;;;;;;-147.27;100.00;65176.34;5012179;28;20489;-59
2020/12/23 04:01:02;;;;;;;71.93;28.50;;;;;;;-147.27;100.00;65176.34;5012223;28;20497;-59
2020/12/23 04:03:28;;;;;;;77.25;30.60;;;;;;;-147.27;100.00;65176.34;5011668;28;20022;-57
2020/12/23 04:05:53;;;;;;;69.00;28.57;;;;;;;-147.27;100.00;65176.34;5019409;28;20117;-60
2020/12/23 04:08:19;;;;;;;73.55;29.13;;;;;;;-147.27;100.00;65176.34;5018492;28;20033;-60
2020/12/23 04:10:44;;;;;;;75.13;31.17;;;;;;;-147.27;100.00;65176.34;5010598;28;20049;-60
2020/12/23 04:13:10;;;;;;;83.03;32.43;;;;;;;-147.27;100.00;65176.34;5012566;28;20042;-60
2020/12/23 04:15:35;;;;;;;71.73;28.87;;;;;;;-147.27;100.00;65176.34;5011857;28;20116;-61
2020/12/23 04:18:01;;;;;;;80.23;29.83;;;;;;;-147.27;100.00;65176.34;5012419;28;20442;-61
2020/12/23 04:20:26;;;;;;;75.73;31.03;;;;;;;-147.27;100.00;65176.34;5012152;28;20373;-59
2020/12/23 04:22:52;;;;;;;74.25;29.50;;;;;;;-147.27;100.00;65176.34;5010351;28;20461;-61
2020/12/23 04:25:17;;;;;;;82.57;30.80;;;;;;;-147.27;100.00;65176.34;5012260;28;20040;-60
2020/12/23 04:27:43;;;;;;;71.03;28.50;;;;;;;-147.27;100.00;65176.34;5011420;28;20037;-60
2020/12/23 04:30:09;;;;;;;72.73;28.63;;;;;;;-147.27;100.00;65176.34;5011938;28;20030;-61
2020/12/23 04:32:34;;;;;;;72.47;31.42;;;;;;;-147.27;100.00;65176.34;5011456;28;20271;-61
2020/12/23 04:35:03;;;;;;;67.00;29.85;;;;;;;-147.27;100.00;65176.34;5011689;28;20073;-61
2020/12/23 04:37:33;;;;;;;72.53;29.73;;;;;;;-147.27;100.00;65176.34;5012027;28;20493;-60
2020/12/23 04:40:00;;;;;;;67.37;28.33;;;;;;;-147.27;100.00;65176.34;5012100;28;20358;-60
2020/12/23 04:42:26;;;;;;;65.80;29.10;;;;;;;-147.27;100.00;65176.34;5012163;28;20310;-61
2020/12/23 04:44:52;;;;;;;78.93;28.75;;;;;;;-147.27;100.00;65176.34;5010879;28;20263;-61
2020/12/23 04:47:23;;;;;;;83.65;28.38;;;;;;;-147.27;100.00;65176.34;5011978;28;20401;-62
2020/12/23 04:49:54;;;;;;;101.87;29.67;;;;;;;-147.27;100.00;65176.34;5011257;28;20378;-61
2020/12/23 04:52:28;;;;;;;75.73;28.13;;;;;;;-147.27;100.00;65176.34;5011839;28;20310;-62
2020/12/23 04:54:54;;;;;;;114.77;29.93;;;;;;;-147.27;100.00;65176.34;5010888;28;20275;-61
2020/12/23 04:57:20;;;;;;;109.40;29.97;;;;;;;-147.27;100.00;65176.34;5011670;28;20283;-61
2020/12/23 04:59:46;;;;;;;80.40;27.67;;;;;;;-147.27;100.00;65176.34;5011040;28;20038;-62
2020/12/23 05:02:11;;;;;;;96.65;28.13;;;;;;;-147.27;100.00;65176.34;5011459;28;20286;-61
2020/12/23 05:04:37;;;;;;;104.03;26.52;;;;;;;-147.27;100.00;65176.34;5010318;28;20457;-60
2020/12/23 05:07:06;;;;;;;84.03;27.30;;;;;;;-147.27;100.00;65176.34;5011784;28;20112;-61
2020/12/23 05:09:32;;;;;;;68.13;25.13;;;;;;;-147.27;100.00;65176.34;5011594;28;20100;-61
2020/12/23 05:11:59;;;;;;;84.30;26.02;;;;;;;-147.27;100.00;65176.34;5011451;28;20267;-62
2020/12/23 05:14:26;;;;;;;77.57;24.73;;;;;;;-147.27;100.00;65176.34;5011426;28;20045;-61
2020/12/23 05:16:52;;;;;;;59.30;23.90;;;;;;;-147.27;100.00;65176.34;5010706;28;20278;-61
2020/12/23 05:19:19;;;;;;;63.28;24.02;;;;;;;-147.27;100.00;65176.34;5011590;28;20287;-61
2020/12/23 05:21:45;;;;;;;64.13;23.73;;;;;;;-147.27;100.00;65176.34;5010734;28;20041;-61
2020/12/23 05:24:11;;;;;;;;;;;;;;;-147.27;100.00;65176.34;5011800;28;20038;-60
2020/12/23 05:26:40;;;;;;;64.90;23.67;;;;;;;-147.27;100.00;65176.34;5010946;28;20365;-58
2020/12/23 05:29:06;;;;;;;61.63;22.40;;;;;;;-147.27;100.00;65176.34;5011419;28;20493;-61
2020/12/23 05:31:34;;;;;;;68.60;23.67;;;;;;;-147.27;100.00;65176.34;5011446;28;20325;-61
2020/12/23 05:33:59;;;;;;;132.73;28.40;;;;;;;-147.27;100.00;65176.34;4993316;28;20049;-62
2020/12/23 05:36:25;;;;;;;79.53;24.27;;;;;;;-147.27;100.00;65176.34;5011437;28;20264;-61
2020/12/23 05:38:51;;;;;;;71.47;24.60;;;;;;;-147.27;100.00;65176.34;5010908;28;20034;-61
2020/12/23 05:41:16;;;;;;;80.50;23.35;;;;;;;-147.27;100.00;65176.34;5010081;28;20037;-61
2020/12/23 05:43:42;;;;;;;90.90;24.20;;;;;;;-147.27;100.00;65176.34;5010307;28;20490;-60
2020/12/23 05:46:10;;;;;;;73.25;24.73;;;;;;;-147.27;100.00;65176.34;5010961;28;20034;-62
2020/12/23 05:48:39;;;;;;;59.90;21.30;;;;;;;-147.27;100.00;65176.34;5011194;28;20050;-61
2020/12/23 05:51:06;;;;;;;58.43;20.77;;;;;;;-147.27;100.00;65176.34;5026210;28;20283;-61
2020/12/23 05:53:34;;;;;;;56.10;18.63;;;;;;;-147.27;100.00;65176.34;5011060;28;20328;-62
2020/12/23 05:56:01;;;;;;;46.50;19.03;;;;;;;-147.27;100.00;65176.34;5010260;28;20263;-61
2020/12/23 05:58:28;;;;;;;44.70;18.80;;;;;;;-147.27;100.00;65176.34;5010842;28;20401;-61
2020/12/23 06:00:57;;;;;;;;;;;;;;;-147.27;100.00;65176.34;5010783;28;20416;-61
2020/12/23 06:03:35;;;;;;;40.73;17.80;;;;;;;-147.27;100.00;65176.34;5026088;28;20311;-60
2020/12/23 06:06:02;;;;;;;38.03;17.87;;;;;;;-147.27;100.00;65176.34;5009855;28;20696;-59
2020/12/23 06:08:29;;;;;;;44.63;17.30;;;;;;;-147.27;100.00;65176.34;5014055;28;20763;-61
2020/12/23 06:11:14;;;;;;;;;;;;;;;-147.27;100.00;65176.34;5010629;28;20414;-60
2020/12/23 06:13:56;;;;;;;39.70;17.40;;;;;;;-147.27;100.00;65176.34;5010195;28;19920;-59
2020/12/23 06:16:29;;;;;;;38.97;16.97;;;;;;;-147.27;100.00;65176.34;5012386;28;20298;-62
2020/12/23 06:18:59;;;;;;;44.33;17.07;;;;;;;-147.27;100.00;65176.34;5013503;28;20282;-61
2020/12/23 06:21:26;;;;;;;31.50;16.33;;;;;;;-147.27;100.00;65176.34;5014263;28;20258;-62
2020/12/23 06:24:01;;;;;;;39.07;18.60;;;;;;;-147.27;100.00;65176.34;5013541;28;20640;-61
2020/12/23 06:26:29;;;;;;;40.70;19.80;;;;;;;-147.27;100.00;65176.34;5020324;28;20255;-62
2020/12/23 06:29:00;;;;;;;38.33;18.57;;;;;;;-147.27;100.00;65176.34;5033426;28;20254;-62
2020/12/23 06:31:29;;;;;;;37.17;17.40;;;;;;;-147.27;100.00;65176.34;5034036;28;20333;-61
2020/12/23 06:33:56;;;;;;;29.33;15.33;;;;;;;-147.27;100.00;65176.34;5033404;28;20349;-62
2020/12/23 06:36:28;;;;;;;29.50;14.77;;;;;;;-147.27;100.00;65176.34;5034108;28;20271;-61
2020/12/23 06:39:19;;;;;;;37.03;14.80;;;;;;;-147.27;100.00;65176.34;5031990;28;20278;-61
2020/12/23 06:41:51;;;;;;;25.43;13.23;;;;;;;-147.27;100.00;65176.34;5033173;28;20291;-60
2020/12/23 06:44:17;;;;;;;29.53;14.13;;;;;;;-147.27;100.00;65176.34;5033426;28;20677;-61
2020/12/23 06:46:58;;;;;;;25.73;13.50;;;;;;;-147.27;100.00;65176.34;5033300;28;20341;-59
2020/12/23 06:49:57;;;;;;;30.60;13.93;;;;;;;-147.27;100.00;65176.34;5033803;28;20065;-61
2020/12/23 06:52:23;;;;;;;27.90;14.03;;;;;;;-147.27;100.00;65176.34;5033625;28;20266;-62
2020/12/23 06:54:49;;;;;;;22.50;13.45;;;;;;;-147.27;100.00;65176.34;5032967;28;20270;-61
2020/12/23 06:57:36;;;;;;;25.23;13.93;;;;;;;-147.27;100.00;65176.34;5031925;28;20068;-62
2020/12/23 07:00:12;;;;;;;25.85;14.40;;;;;;;-147.27;100.00;65176.34;5032943;28;20044;-62
2020/12/23 07:02:49;;;;;;;27.00;15.25;;;;;;;-147.27;100.00;65176.34;5028228;28;20038;-61
2020/12/23 07:05:20;;;;;;;25.60;14.77;;;;;;;-147.27;100.00;65176.34;5013685;28;20038;-61
2020/12/23 07:07:47;;;;;;;26.93;14.57;;;;;;;-147.27;100.00;65176.34;5012743;28;20042;-58
2020/12/23 07:10:12;;;;;;;26.42;14.43;;;;;;;-147.27;100.00;65176.34;5013380;28;20248;-60
2020/12/23 07:12:42;;;;;;;29.10;16.10;;;;;;;-147.27;100.00;65176.34;5028461;28;20048;-61
2020/12/23 07:15:09;;;;;;;27.43;15.47;;;;;;;-147.27;100.00;65176.34;5011433;28;20033;-60
2020/12/23 07:17:37;;;;;;;32.40;15.53;;;;;;;-147.27;100.00;65176.34;5012092;28;20595;-60
2020/12/23 07:20:05;;;;;;;31.50;16.80;;;;;;;-147.27;100.00;65176.34;5027749;28;20694;-61
2020/12/23 07:22:32;;;;;;;30.57;16.50;;;;;;;-147.27;100.00;65176.34;5013245;28;20282;-61
2020/12/23 07:24:58;;;;;;;32.17;16.47;;;;;;;-147.27;100.00;65176.34;5029848;28;20334;-62
2020/12/23 07:27:25;;;;;;;30.25;17.33;;;;;;;-147.27;100.00;65176.34;5030820;28;20255;-61
2020/12/23 07:30:07;;;;;;;30.90;16.63;;;;;;;-147.27;100.00;65176.34;5031839;28;20053;-60
2020/12/23 07:32:32;;;;;;;34.07;16.67;;;;;;;-147.27;100.00;65176.34;5030884;28;20305;-62
2020/12/23 07:34:59;;;;;;;30.17;17.33;;;;;;;-147.27;100.00;65176.34;5032067;28;20302;-60
2020/12/23 07:37:26;;;;;;;29.55;16.58;;;;;;;-147.27;100.00;65176.34;5032466;28;20026;-61
2020/12/23 07:39:53;;;;;;;32.27;17.53;;;;;;;-147.27;100.00;65176.34;5022238;28;20025;-60
2020/12/23 07:42:20;;;;;;;28.65;16.33;;;;;;;-147.27;100.00;65176.34;5031852;28;20787;-61
2020/12/23 07:44:52;;;;;;;31.77;16.70;;;;;;;-147.27;100.00;65176.34;4991850;28;20053;-61
2020/12/23 07:47:24;;;;;;;27.83;16.17;;;;;;;-147.27;100.00;65176.34;5011414;28;20271;-61
2020/12/23 07:50:04;;;;;;;31.63;16.20;;;;;;;-147.27;100.00;65176.34;5011991;28;20279;-61
2020/12/23 07:52:31;;;;;;;27.20;15.83;;;;;;;-147.27;100.00;65176.34;5012373;28;20762;-61
2020/12/23 07:55:18;;;;;;;27.25;15.00;;;;;;;-147.27;100.00;65176.34;5011928;28;20267;-61
2020/12/23 07:57:44;;;;;;;56.63;15.85;;;;;;;-147.27;100.00;65176.34;5023420;28;20061;-61
2020/12/23 08:00:11;;;;;;;30.73;14.27;;;;;;;-147.27;100.00;65176.34;5022624;28;20108;-62
2020/12/23 08:02:40;;;;;;;31.60;13.93;;;;;;;-147.27;100.00;65176.34;5031498;28;20176;-61
2020/12/23 08:05:08;;;;;;;25.20;13.50;;;;;;;-147.27;100.00;65176.34;5029917;28;20373;-62
2020/12/23 08:07:41;;;;;;;27.10;13.30;;;;;;;-147.27;100.00;65176.34;5031279;28;20042;-62
2020/12/23 08:10:28;;;;;;;20.23;12.43;;;;;;;-147.27;100.00;65176.34;5031569;28;20275;-62
2020/12/23 08:13:03;;;;;;;24.70;11.63;;;;;;;-147.27;100.00;65176.34;5028269;28;20381;-61
2020/12/23 08:15:29;;;;;;;21.37;12.37;;;;;;;-147.27;100.00;65176.34;5012486;28;20081;-62
2020/12/23 08:18:06;;;;;;;18.73;10.25;;;;;;;-147.27;100.00;65176.34;5011259;28;20841;-60
2020/12/23 08:20:35;;;;;;;21.42;12.43;;;;;;;-147.27;100.00;65176.34;5011937;28;20038;-61
2020/12/23 08:23:01;;;;;;;22.33;12.00;;;;;;;-147.27;100.00;65176.34;5011395;28;20394;-61
2020/12/23 08:25:29;;;;;;;22.52;12.15;;;;;;;-147.27;100.00;65176.34;5011763;28;20270;-61
2020/12/23 08:27:57;;;;;;;17.43;11.00;;;;;;;-147.27;100.00;65176.34;5018369;28;20037;-61
2020/12/23 08:30:33;;;;;;;18.40;10.97;;;;;;;-147.27;100.00;65176.34;5030601;28;20274;-61
2020/12/23 08:33:02;;;;;;;20.70;12.00;;;;;;;-147.27;100.00;65176.34;5026724;28;20267;-61
2020/12/23 08:35:39;;;;;;;20.10;10.33;;;;;;;-147.27;100.00;65176.34;5030977;28;20274;-61
2020/12/23 08:38:14;;;;;;;18.67;10.38;;;;;;;-147.27;100.00;65176.34;5029913;28;20267;-61
2020/12/23 08:40:47;;;;;;;18.17;9.13;;;;;;;-147.27;100.00;65176.34;5029224;28;20033;-60
2020/12/23 08:43:20;;;;;;;15.83;9.63;;;;;;;-147.27;100.00;65176.34;5029159;28;20278;-59
2020/12/23 08:45:46;;;;;;;17.23;9.10;;;;;;;-147.27;100.00;65176.34;5031588;28;20325;-61
2020/12/23 08:48:17;;;;;;;17.38;9.68;;;;;;;-147.27;100.00;65176.34;5028964;28;20588;-62
2020/12/23 08:50:43;;;;;;;18.77;9.73;;;;;;;-147.27;100.00;65176.34;5031140;28;20049;-60
2020/12/23 08:53:08;;;;;;;14.00;8.53;;;;;;;-147.27;100.00;65176.34;5030739;28;20310;-61
2020/12/23 08:55:38;;;;;;;18.70;9.10;;;;;;;-147.27;100.00;65176.34;5031328;28;20378;-61
2020/12/23 08:58:07;;;;;;;17.77;9.10;;;;;;;-147.27;100.00;65176.34;5028665;28;20079;-61
2020/12/23 09:00:34;;;;;;;19.40;10.47;;;;;;;-147.27;100.00;65176.34;5031006;28;20270;-61
2020/12/23 09:02:59;;;;;;;19.05;10.95;;;;;;;-147.27;100.00;65176.34;5030025;28;20279;-61
2020/12/23 09:05:38;;;;;;;19.73;10.95;;;;;;;-147.27;100.00;65176.34;5031079;28;20085;-61
2020/12/23 09:08:06;;;;;;;19.50;11.00;;;;;;;-147.27;100.00;65176.34;5030566;28;20095;-61
2020/12/23 09:10:32;;;;;;;17.50;9.93;;;;;;;-147.27;100.00;65176.34;5031074;28;20302;-61
2020/12/23 09:13:08;;;;;;;17.42;10.20;;;;;;;-147.27;100.00;65176.34;5029897;28;20332;-62
2020/12/23 09:15:35;;;;;;;19.05;11.00;;;;;;;-147.27;100.00;65176.34;5030695;28;20045;-62
2020/12/23 09:18:04;;;;;;;;;;;;;;;-147.27;100.00;65176.34;5030405;28;20481;-60
2020/12/23 09:20:30;;;;;;;20.37;10.87;;;;;;;-147.27;100.00;65176.34;5030877;28;19913;-60
2020/12/23 09:22:55;;;;;;;24.97;13.23;;;;;;;-147.27;100.00;65176.34;5030326;28;20282;-62
2020/12/23 09:25:25;;;;;;;28.10;15.13;;;;;;;-147.27;100.00;65176.34;5030957;28;20075;-62
2020/12/23 09:27:54;;;;;;;26.47;14.40;;;;;;;-147.27;100.00;65176.34;5029059;28;20043;-61
2020/12/23 09:30:46;;;;;;;23.47;12.60;;;;;;;-147.27;100.00;65176.34;5031415;28;20285;-61
2020/12/23 09:33:12;;;;;;;26.13;13.60;;;;;;;-147.27;100.00;65176.34;5030223;28;20707;-62
2020/12/23 09:35:39;;;;;;;23.10;12.37;;;;;;;-147.27;100.00;65176.34;5030109;28;20278;-61
2020/12/23 09:38:19;;;;;;;20.07;10.17;;;;;;;-147.27;100.00;65176.34;5030023;28;20385;-61
2020/12/23 09:40:48;;;;;;;21.03;10.53;;;;;;;-147.27;100.00;65176.34;5030946;28;20321;-59
2020/12/23 09:43:19;;;;;;;31.73;15.23;;;;;;;-147.27;100.00;65176.34;5029651;28;20258;-61
2020/12/23 09:45:47;;;;;;;32.57;15.53;;;;;;;-147.27;100.00;65176.34;5030884;28;20255;-61
2020/12/23 09:48:16;;;;;;;29.30;15.47;;;;;;;-147.27;100.00;65176.34;5029887;28;20474;-59
2020/12/23 09:50:43;;;;;;;26.57;14.17;;;;;;;-147.27;100.00;65176.34;5031845;28;20614;-59
2020/12/23 09:53:09;;;;;;;25.13;13.13;;;;;;;-147.27;100.00;65176.34;5032987;28;20368;-60
2020/12/23 09:55:34;;;;;;;23.98;13.23;;;;;;;-147.27;100.00;65176.34;5034608;28;20489;-60
2020/12/23 09:58:00;;;;;;;25.35;14.50;;;;;;;-147.27;100.00;65176.34;5031583;28;20041;-60
2020/12/23 10:00:27;;;;;;;26.20;14.10;;;;;;;-147.27;100.00;65176.34;5034502;28;20033;-60
2020/12/23 10:02:54;;;;;;;23.57;13.07;;;;;;;-147.27;100.00;65176.34;5033574;28;20037;-61
2020/12/23 10:05:19;;;;;;;18.90;11.50;;;;;;;-147.27;100.00;65176.34;5032980;28;20700;-61
2020/12/23 10:07:45;;;;;;;15.57;9.03;;;;;;;-147.27;100.00;65176.34;5034402;28;20336;-60
2020/12/23 10:10:10;;;;;;;14.43;7.63;;;;;;;-147.27;100.00;65176.34;5032178;28;20358;-60
2020/12/23 10:12:36;;;;;;;13.63;6.23;;;;;;;-147.27;100.00;65176.34;5033769;28;20033;-59
2020/12/23 10:15:06;;;;;;;13.23;6.55;;;;;;;-147.27;100.00;65176.34;5032217;28;20384;-59
2020/12/23 10:17:32;;;;;;;12.33;6.23;;;;;;;-147.27;100.00;65176.34;5033473;28;20076;-61
2020/12/23 10:19:58;;;;;;;14.82;6.60;;;;;;;-147.27;100.00;65176.34;5033583;28;20780;-60
2020/12/23 10:22:23;;;;;;;15.27;7.20;;;;;;;-147.27;100.00;65176.34;5033752;28;20037;-61
2020/12/23 10:24:49;;;;;;;15.27;7.90;;;;;;;-147.27;100.00;65176.34;5033687;28;20428;-61
2020/12/23 10:27:14;;;;;;;18.33;7.70;;;;;;;-147.27;100.00;65176.34;5032599;28;20197;-60
2020/12/23 10:29:40;;;;;;;14.63;7.03;;;;;;;-147.27;100.00;65176.34;5033658;28;20270;-61
2020/12/23 10:32:05;;;;;;;30.90;8.17;;;;;;;-147.27;100.00;65176.34;5032839;28;20132;-61
2020/12/23 10:34:30;;;;;;;44.57;10.10;;;;;;;-147.27;100.00;65176.34;5033976;28;20136;-61
2020/12/23 10:36:56;;;;;;;27.65;8.00;;;;;;;-147.27;100.00;65176.34;5031908;28;20041;-59
2020/12/23 10:39:22;;;;;;;90.10;11.27;;;;;;;-147.27;100.00;65176.34;5033461;28;20033;-61
2020/12/23 10:41:53;;;;;;;54.33;8.63;;;;;;;-147.27;100.00;65176.34;5033453;28;20029;-61
2020/12/23 10:44:19;;;;;;;49.47;9.43;;;;;;;-147.27;100.00;65176.34;5033172;28;20291;-62
2020/12/23 10:46:44;;;;;;;70.93;12.57;;;;;;;-147.27;100.00;65176.34;5033090;28;20312;-61
2020/12/23 10:49:10;;;;;;;46.43;8.73;;;;;;;-147.27;100.00;65176.34;5032972;28;20394;-61
2020/12/23 10:51:35;;;;;;;19.03;7.97;;;;;;;-147.27;100.00;65176.34;5033646;28;20287;-60
2020/12/23 10:54:01;;;;;;;23.50;8.00;;;;;;;-147.27;100.00;65176.34;5031508;28;20048;-61
2020/12/23 10:56:26;;;;;;;19.83;7.97;;;;;;;-147.27;100.00;65176.34;5032782;28;20057;-60
2020/12/23 10:58:52;;;;;;;26.10;7.82;;;;;;;-147.27;100.00;65176.34;5033377;28;20037;-61
2020/12/23 11:01:18;;;;;;;17.07;7.87;;;;;;;-147.27;100.00;65176.34;5031797;28;20053;-61